Time;durP1;ratioP1;P1;durP2;ratioP2;P2;SDS_P1;SDS_P2;PMS_P1;PMS_P2;Temp;Humidity;BMP_temperature;BMP_pressure;BME280_temperature;BME280_humidity;BME280_pressure;Samples;Min_cycle;Max_cycle;Signal;HPM_P1;HPM_P2
2021/03/09 00:00:08;;;;;;;3.70;2.03;;;;;;;1.20;61.24;101376.26;124021;1105;64911;-78
2021/03/09 00:02:34;;;;;;;5.57;2.30;;;;;;;1.20;61.28;101371.86;123554;1105;64920;-77
2021/03/09 00:05:01;;;;;;;3.60;2.00;;;;;;;1.18;61.37;101368.52;123423;1105;64898;-77
2021/03/09 00:07:27;;;;;;;3.87;1.70;;;;;;;1.20;61.56;101365.80;123488;1103;64895;-78
2021/03/09 00:09:53;;;;;;;4.40;2.23;;;;;;;1.20;61.22;101371.86;123375;1105;65002;-77
2021/03/09 00:12:20;;;;;;;7.23;2.47;;;;;;;1.20;61.53;101369.25;123419;1106;64911;-78
2021/03/09 00:14:46;;;;;;;3.70;1.70;;;;;;;1.19;61.81;101366.73;123484;1105;65711;-77
2021/03/09 00:17:16;;;;;;;3.67;1.90;;;;;;;1.18;61.54;101363.28;123434;1104;64946;-78
2021/03/09 00:19:42;;;;;;;4.50;1.60;;;;;;;1.17;61.98;101361.63;123447;1105;64912;-77
2021/03/09 00:22:08;;;;;;;2.93;1.57;;;;;;;1.17;61.64;101361.63;123459;1104;64988;-78
2021/03/09 00:24:35;;;;;;;6.60;1.70;;;;;;;1.16;61.44;101359.92;123306;1105;65010;-77
2021/03/09 00:27:01;;;;;;;6.63;1.80;;;;;;;1.15;62.07;101358.27;123497;1105;66822;-78
2021/03/09 00:29:27;;;;;;;5.70;2.33;;;;;;;1.16;62.12;101353.88;123421;1105;64892;-76
2021/03/09 00:31:53;;;;;;;2.50;1.40;;;;;;;1.15;61.35;101360.88;123423;1105;65119;-77
2021/03/09 00:34:19;;;;;;;3.15;1.70;;;;;;;1.14;62.09;101361.80;123435;1105;64918;-78
2021/03/09 00:36:46;;;;;;;3.77;1.90;;;;;;;1.13;61.74;101354.91;123415;1105;65003;-79
2021/03/09 00:39:12;;;;;;;5.50;2.30;;;;;;;1.14;61.76;101366.19;123480;1106;64975;-76
2021/03/09 00:41:38;;;;;;;4.67;2.67;;;;;;;1.12;61.99;101347.98;123433;1105;64892;-77
2021/03/09 00:44:05;;;;;;;4.35;2.45;;;;;;;1.13;62.03;101349.69;123480;1105;64934;-77
2021/03/09 00:46:31;;;;;;;5.77;2.30;;;;;;;1.13;61.74;101354.91;123435;1105;65049;-77
2021/03/09 00:48:58;;;;;;;4.63;1.80;;;;;;;1.12;61.46;101353.22;123460;1105;64895;-78
2021/03/09 00:51:24;;;;;;;8.00;2.67;;;;;;;1.15;61.75;101352.20;123442;1105;64840;-79
2021/03/09 00:53:50;;;;;;;7.30;3.37;;;;;;;1.13;62.05;101344.45;123400;1103;65041;-80
2021/03/09 00:56:16;;;;;;;8.37;2.70;;;;;;;1.14;62.14;101340.06;123381;1105;64847;-79
2021/03/09 00:58:42;;;;;;;5.47;2.40;;;;;;;1.13;62.08;101346.24;123349;1106;65049;-78
2021/03/09 01:01:09;;;;;;;4.27;2.43;;;;;;;1.12;62.43;101342.77;123361;1105;65006;-78
2021/03/09 01:03:35;;;;;;;5.67;2.90;;;;;;;1.12;62.22;101340.16;123462;1105;64918;-79
2021/03/09 01:06:01;;;;;;;4.83;2.70;;;;;;;1.12;62.58;101334.92;123759;1105;64897;-80
2021/03/09 01:08:28;;;;;;;3.17;2.03;;;;;;;1.12;61.95;101331.48;123574;1105;65361;-79
2021/03/09 01:10:54;;;;;;;3.60;1.75;;;;;;;1.11;62.13;101330.66;123742;1105;65326;-77
2021/03/09 01:13:20;;;;;;;7.05;2.70;;;;;;;1.16;61.26;101327.73;123394;1104;65617;-77
2021/03/09 01:15:46;;;;;;;3.83;1.77;;;;;;;1.19;61.35;101323.16;123435;1105;64912;-79
2021/03/09 01:18:18;;;;;;;6.95;2.75;;;;;;;1.26;61.22;101323.60;123513;1105;64966;-79
2021/03/09 01:20:46;;;;;;;5.17;2.53;;;;;;;1.28;60.88;101321.73;123435;1103;64965;-79
2021/03/09 01:23:12;;;;;;;7.53;3.33;;;;;;;1.33;60.73;101322.25;123773;1106;64896;-77
2021/03/09 01:25:38;;;;;;;5.53;3.03;;;;;;;1.38;60.47;101314.97;123303;1105;65032;-77
2021/03/09 01:28:05;;;;;;;6.37;2.73;;;;;;;1.41;60.10;101321.77;123400;1105;64847;-77
2021/03/09 01:30:32;;;;;;;3.77;2.00;;;;;;;1.45;60.05;101310.17;123572;1105;64985;-78
2021/03/09 01:32:58;;;;;;;4.73;1.93;;;;;;;1.47;60.04;101305.69;123414;1105;65040;-79
2021/03/09 01:35:25;;;;;;;3.80;1.90;;;;;;;1.50;60.21;101302.85;123636;1105;64915;-77
2021/03/09 01:37:51;;;;;;;5.58;2.52;;;;;;;1.52;59.96;101302.77;123364;1105;64953;-77
2021/03/09 01:40:19;;;;;;;6.47;2.83;;;;;;;1.54;59.72;101298.27;123490;1103;65712;-79
2021/03/09 01:42:45;;;;;;;6.60;3.10;;;;;;;1.54;59.76;101299.09;124287;1105;64959;-79
2021/03/09 01:45:12;;;;;;;5.95;2.92;;;;;;;1.57;58.87;101290.20;123426;1105;64899;-79
2021/03/09 01:47:43;;;;;;;7.23;3.10;;;;;;;1.56;59.74;101294.61;123409;1105;65346;-79
2021/03/09 01:50:12;;;;;;;4.40;2.27;;;;;;;1.56;60.04;101293.77;123303;1105;65282;-79
2021/03/09 01:52:40;;;;;;;8.33;3.63;;;;;;;1.54;60.35;101291.25;123779;1105;64915;-79
2021/03/09 01:55:10;;;;;;;6.90;3.67;;;;;;;1.54;59.79;101290.42;123479;1106;64963;-76
2021/03/09 01:57:38;;;;;;;7.07;3.17;;;;;;;1.53;60.51;101283.50;123481;1105;64892;-79
2021/03/09 02:00:06;;;;;;;8.23;3.57;;;;;;;1.52;60.32;101282.67;123656;1105;64978;-77
2021/03/09 02:02:33;;;;;;;6.67;3.50;;;;;;;1.51;60.58;101278.40;123496;1105;64914;-76
2021/03/09 02:05:03;;;;;;;10.35;4.10;;;;;;;1.50;60.62;101274.09;123540;1105;64901;-78
2021/03/09 02:07:29;;;;;;;6.87;2.93;;;;;;;1.49;60.91;101272.43;123420;1105;66249;-77
2021/03/09 02:09:56;;;;;;;8.35;3.77;;;;;;;1.49;60.54;101277.66;123405;1105;64899;-79
2021/03/09 02:12:41;;;;;;;5.57;2.97;;;;;;;1.50;60.98;101274.09;123422;1105;65711;-79
2021/03/09 02:15:37;;;;;;;4.90;2.93;;;;;;;1.50;60.97;101268.86;123455;1105;64920;-78
2021/03/09 02:18:22;;;;;;;3.80;2.33;;;;;;;1.53;61.04;101265.20;123370;1105;66189;-79
2021/03/09 02:21:14;;;;;;;9.20;3.77;;;;;;;1.52;61.00;101263.54;123354;1106;64969;-77
2021/03/09 02:24:05;;;;;;;7.60;3.70;;;;;;;1.53;61.20;101263.45;123394;1105;64985;-78
2021/03/09 02:26:43;;;;;;;8.57;3.80;;;;;;;1.51;61.33;101260.09;123353;1105;64930;-77
2021/03/09 02:29:43;;;;;;;6.27;3.67;;;;;;;1.52;61.18;101256.53;123549;1105;64979;-78
2021/03/09 02:32:15;;;;;;;8.00;3.87;;;;;;;1.51;61.58;101254.87;123617;1103;64918;-77
2021/03/09 02:34:50;;;;;;;9.97;3.47;;;;;;;1.50;61.33;101257.58;123415;1105;64872;-77
2021/03/09 02:37:17;;;;;;;9.35;4.83;;;;;;;1.49;61.64;101256.75;123581;1105;65689;-78
2021/03/09 02:39:48;;;;;;;6.70;3.67;;;;;;;1.49;61.92;101250.66;123473;1105;64975;-78
2021/03/09 02:42:25;;;;;;;9.10;4.20;;;;;;;1.47;61.95;101242.94;123405;1105;64918;-78
2021/03/09 02:44:58;;;;;;;14.87;6.60;;;;;;;1.47;61.85;101242.08;123458;1105;64894;-79
2021/03/09 02:47:26;;;;;;;12.30;3.90;;;;;;;1.45;62.14;101238.76;123536;1106;64940;-78
2021/03/09 02:49:54;;;;;;;11.80;5.37;;;;;;;1.44;61.91;101232.66;123626;1105;64921;-78
2021/03/09 02:52:25;;;;;;;8.23;4.10;;;;;;;1.41;62.03;101232.89;123445;1105;64940;-78
2021/03/09 02:54:52;;;;;;;10.80;5.60;;;;;;;1.41;62.21;101232.89;123445;1105;64902;-77
2021/03/09 02:57:20;;;;;;;6.07;3.57;;;;;;;1.38;62.40;101227.84;123444;1105;64920;-78
2021/03/09 02:59:48;;;;;;;12.77;6.07;;;;;;;1.36;62.53;101229.72;123429;1105;64856;-79
2021/03/09 03:02:18;;;;;;;13.70;6.00;;;;;;;1.33;62.68;101232.55;123413;1105;64930;-77
2021/03/09 03:04:50;;;;;;;14.57;5.27;;;;;;;1.32;63.10;101223.02;123739;1105;64851;-77
2021/03/09 03:07:18;;;;;;;12.60;6.10;;;;;;;1.30;62.77;101227.55;123423;1105;65490;-78
2021/03/09 03:09:46;;;;;;;11.15;5.60;;;;;;;1.29;62.95;101220.63;123507;1105;64924;-78
2021/03/09 03:12:13;;;;;;;12.67;6.13;;;;;;;1.28;63.01;101216.35;124026;1105;64918;-78
2021/03/09 03:14:45;;;;;;;13.10;6.23;;;;;;;1.28;62.82;101216.35;123457;1105;65005;-77
2021/03/09 03:17:14;;;;;;;8.93;4.77;;;;;;;1.27;62.53;101212.05;123451;1105;64885;-77
2021/03/09 03:19:50;;;;;;;5.83;3.80;;;;;;;1.27;62.94;101219.89;123391;1105;65879;-78
2021/03/09 03:22:17;;;;;;;10.07;4.60;;;;;;;1.28;62.85;101213.73;124064;1105;64931;-79
2021/03/09 03:24:49;;;;;;;8.97;3.80;;;;;;;1.27;62.87;101204.20;125759;1105;64060;-79
2021/03/09 03:27:17;;;;;;;9.77;4.93;;;;;;;1.27;62.96;101201.59;123538;1105;65330;-77
2021/03/09 03:29:45;;;;;;;11.73;6.67;;;;;;;1.28;62.95;101201.50;123368;1104;64899;-79
2021/03/09 03:32:14;;;;;;;17.90;7.03;;;;;;;1.30;63.22;101199.63;123397;1105;64915;-77
2021/03/09 03:34:41;;;;;;;12.10;5.90;;;;;;;1.30;62.54;101193.56;123375;1105;64796;-77
2021/03/09 03:37:07;;;;;;;18.40;6.60;;;;;;;1.30;63.07;101197.02;123475;1105;64928;-78
2021/03/09 03:39:35;;;;;;;12.33;5.77;;;;;;;1.30;63.36;101198.80;123424;1105;66101;-78
2021/03/09 03:42:02;;;;;;;7.63;4.10;;;;;;;1.27;63.92;101199.81;123375;1105;64905;-77
2021/03/09 03:44:28;;;;;;;13.80;6.23;;;;;;;1.25;63.52;101198.24;123411;1105;65891;-78
2021/03/09 03:46:54;;;;;;;11.35;4.20;;;;;;;1.21;63.39;101197.60;123450;1103;64918;-78
2021/03/09 03:49:22;;;;;;;8.53;4.23;;;;;;;1.20;63.80;101199.38;123399;1105;65134;-76
2021/03/09 03:51:59;;;;;;;10.93;5.17;;;;;;;1.18;64.23;101188.20;123981;1103;64914;-76
2021/03/09 03:54:48;;;;;;;11.57;5.57;;;;;;;1.17;64.19;101191.77;123440;1105;64988;-76
2021/03/09 03:57:27;;;;;;;12.25;6.10;;;;;;;1.16;63.96;101189.24;123470;1105;65026;-78
2021/03/09 03:59:58;;;;;;;14.93;6.93;;;;;;;1.15;64.51;101193.64;126387;1105;63037;-78
2021/03/09 04:02:25;;;;;;;9.70;5.43;;;;;;;1.13;64.92;101185.06;123372;1104;64943;-76
2021/03/09 04:04:53;;;;;;;12.47;6.83;;;;;;;1.12;64.24;101185.98;123384;1105;64995;-76
2021/03/09 04:07:25;;;;;;;13.90;6.37;;;;;;;1.12;64.88;101190.38;126250;1105;62916;-77
2021/03/09 04:09:55;;;;;;;12.63;6.27;;;;;;;1.13;64.07;101185.06;123346;1105;65261;-79
2021/03/09 04:12:25;;;;;;;10.53;5.03;;;;;;;1.13;65.03;101176.40;123638;1106;64943;-79
2021/03/09 04:14:51;;;;;;;11.03;6.17;;;;;;;1.13;64.82;101177.22;123427;1105;66079;-75
2021/03/09 04:17:19;;;;;;;10.18;5.53;;;;;;;1.12;64.20;101174.70;123375;1105;64844;-76
2021/03/09 04:19:47;;;;;;;12.90;6.33;;;;;;;1.12;64.53;101174.70;123700;1103;64841;-76
2021/03/09 04:22:16;;;;;;;13.55;5.60;;;;;;;1.10;64.94;101177.41;123434;1105;65037;-77
2021/03/09 04:24:44;;;;;;;14.03;6.77;;;;;;;1.09;64.71;101170.53;123811;1106;64850;-77
2021/03/09 04:27:21;;;;;;;10.23;5.10;;;;;;;1.09;64.91;101164.47;123451;1105;65228;-76
2021/03/09 04:30:07;;;;;;;15.95;6.70;;;;;;;1.08;65.42;101165.39;123386;1106;65036;-77
2021/03/09 04:32:34;;;;;;;12.93;6.57;;;;;;;1.09;64.98;101164.47;123356;1105;64915;-79
2021/03/09 04:35:01;;;;;;;11.10;5.83;;;;;;;1.09;65.58;101165.30;123495;1105;65358;-78
2021/03/09 04:37:39;;;;;;;11.00;5.77;;;;;;;1.09;65.01;101169.70;123352;1105;64898;-80
2021/03/09 04:40:07;;;;;;;9.73;4.80;;;;;;;1.09;65.84;101167.09;123699;1105;64924;-80
2021/03/09 04:42:33;;;;;;;12.50;5.53;;;;;;;1.08;65.33;101173.23;123573;1105;65193;-78
2021/03/09 04:45:00;;;;;;;8.95;4.10;;;;;;;1.06;65.92;101159.44;123368;1105;65406;-78
2021/03/09 04:47:26;;;;;;;11.38;6.60;;;;;;;1.06;65.92;101164.66;123409;1105;64915;-78
2021/03/09 04:49:57;;;;;;;17.33;6.37;;;;;;;1.05;66.36;101163.00;123788;1105;64876;-78
2021/03/09 04:52:27;;;;;;;16.50;6.87;;;;;;;1.07;66.57;101159.34;123422;1105;65253;-77
2021/03/09 04:54:54;;;;;;;15.20;5.97;;;;;;;1.10;66.10;101161.73;123460;1105;65038;-78
2021/03/09 04:57:36;;;;;;;13.53;6.80;;;;;;;1.11;65.91;101152.97;123860;1105;65233;-80
2021/03/09 05:00:08;;;;;;;16.80;6.07;;;;;;;1.11;65.74;101155.59;123754;1105;64898;-77
2021/03/09 05:02:47;;;;;;;14.03;6.13;;;;;;;1.12;65.82;101153.80;123346;1105;64895;-77
2021/03/09 05:05:16;;;;;;;12.73;4.78;;;;;;;1.13;66.07;101156.32;123555;1105;64895;-77
2021/03/09 05:07:43;;;;;;;12.43;6.47;;;;;;;1.14;65.74;101155.37;123375;1105;65129;-80
2021/03/09 05:10:11;;;;;;;12.90;6.00;;;;;;;1.16;65.79;101157.88;123566;1105;66086;-80
2021/03/09 05:12:43;;;;;;;12.43;5.90;;;;;;;1.17;65.92;101152.56;123785;1105;65048;-80
2021/03/09 05:15:10;;;;;;;14.70;7.50;;;;;;;1.21;66.06;101159.27;123661;1105;65707;-79
2021/03/09 05:17:37;;;;;;;11.23;5.47;;;;;;;1.22;65.95;101165.31;123384;1105;64915;-80
2021/03/09 05:20:09;;;;;;;19.33;8.67;;;;;;;1.25;66.18;101153.81;123547;1106;64953;-79
2021/03/09 05:22:36;;;;;;;23.03;9.90;;;;;;;1.26;66.74;101164.17;123602;1105;64929;-79
2021/03/09 05:25:08;;;;;;;15.30;7.83;;;;;;;1.27;67.28;101162.39;123571;1105;65336;-79
2021/03/09 05:27:35;;;;;;;13.70;7.27;;;;;;;1.28;68.17;101158.85;123394;1105;64914;-81
2021/03/09 05:30:01;;;;;;;12.70;6.00;;;;;;;1.28;67.76;101159.69;123519;1105;64918;-80
2021/03/09 05:32:27;;;;;;;13.67;6.20;;;;;;;1.29;68.97;101160.52;123440;1105;65016;-80
2021/03/09 05:34:53;;;;;;;14.50;6.40;;;;;;;1.30;69.19;101162.20;123588;1106;64988;-80
2021/03/09 05:37:19;;;;;;;12.33;6.40;;;;;;;1.31;69.96;101158.63;123429;1105;64851;-80
2021/03/09 05:39:45;;;;;;;11.20;5.85;;;;;;;1.29;70.51;101165.73;123456;1105;64924;-80
2021/03/09 05:42:12;;;;;;;15.00;6.17;;;;;;;1.30;70.64;101162.20;123462;1105;64946;-80
2021/03/09 05:44:38;;;;;;;12.28;4.60;;;;;;;1.28;70.98;101170.14;123461;1105;65100;-79
2021/03/09 05:47:05;;;;;;;12.10;6.10;;;;;;;1.28;72.32;101158.85;123466;1105;64975;-80
2021/03/09 05:49:32;;;;;;;10.70;5.50;;;;;;;1.27;71.77;101157.16;123531;1105;64924;-79
2021/03/09 05:51:59;;;;;;;13.20;5.87;;;;;;;1.25;72.40;101165.09;123496;1105;64946;-79
2021/03/09 05:54:26;;;;;;;12.43;6.23;;;;;;;1.23;72.28;101159.14;124736;1105;64844;-80
2021/03/09 05:56:52;;;;;;;8.13;3.83;;;;;;;1.20;73.22;101157.58;123751;1105;64953;-79
2021/03/09 05:59:19;;;;;;;10.13;5.50;;;;;;;1.17;72.85;101157.80;123769;1105;64978;-78
2021/03/09 06:01:45;;;;;;;8.27;4.17;;;;;;;1.18;73.36;101163.84;123498;1105;64979;-79
2021/03/09 06:04:12;;;;;;;11.30;6.63;;;;;;;1.13;74.75;101172.00;123541;1105;64902;-79
2021/03/09 06:06:38;;;;;;;6.37;3.57;;;;;;;1.09;74.71;101169.70;123537;1103;64985;-79
2021/03/09 06:09:33;;;;;;;17.85;8.00;;;;;;;1.06;74.87;101170.71;123500;1105;64923;-78
2021/03/09 06:12:15;;;;;;;10.05;4.42;;;;;;;1.05;76.33;101166.44;123491;1105;64921;-79
2021/03/09 06:15:13;;;;;;;13.40;3.93;;;;;;;1.03;76.40;101167.48;123507;1105;64920;-77
2021/03/09 06:17:43;;;;;;;7.37;2.80;;;;;;;0.99;77.01;101162.45;123339;1106;65033;-79
2021/03/09 06:20:21;;;;;;;14.73;5.87;;;;;;;0.95;77.75;101162.76;123638;1105;65036;-77
2021/03/09 06:22:48;;;;;;;;;;;;;;;0.92;77.51;101158.58;123616;1103;64972;-84
2021/03/09 06:25:17;;;;;;;14.73;6.17;;;;;;;0.93;77.57;101164.63;123344;1105;65017;-77
2021/03/09 06:27:45;;;;;;;12.40;6.83;;;;;;;0.92;77.51;101161.19;123500;1105;64918;-78
2021/03/09 06:30:15;;;;;;;4.33;2.33;;;;;;;0.92;80.34;101162.97;123346;1105;66120;-78
2021/03/09 06:32:43;;;;;;;13.03;5.77;;;;;;;0.92;78.65;101157.75;123418;1106;64850;-78
2021/03/09 06:35:38;;;;;;;8.83;3.70;;;;;;;0.89;80.39;101152.71;123376;1106;64988;-77
2021/03/09 06:38:24;;;;;;;11.47;5.33;;;;;;;0.84;79.97;101153.02;123410;1103;64862;-76
2021/03/09 06:41:11;;;;;;;7.90;3.53;;;;;;;0.77;81.10;101152.59;123389;1105;66113;-77
2021/03/09 06:43:40;;;;;;;8.23;4.17;;;;;;;0.73;80.97;101152.89;123600;1105;64895;-80
2021/03/09 06:46:18;;;;;;;6.03;2.40;;;;;;;0.70;82.64;101153.94;123949;1105;65409;-80
2021/03/09 06:48:51;;;;;;;6.77;2.73;;;;;;;0.67;82.90;101154.12;123610;1105;65530;-80
2021/03/09 06:51:25;;;;;;;7.10;3.93;;;;;;;0.64;83.40;101156.94;123561;1105;64902;-81
2021/03/09 06:54:04;;;;;;;7.23;3.27;;;;;;;0.63;83.10;101157.03;123654;1105;64847;-80
2021/03/09 06:56:32;;;;;;;11.23;4.97;;;;;;;0.63;83.02;101157.03;123382;1105;64985;-81
2021/03/09 06:59:25;;;;;;;6.00;3.33;;;;;;;0.62;83.37;101150.98;123507;1104;64933;-81
2021/03/09 07:02:12;;;;;;;5.87;3.30;;;;;;;0.61;83.71;101157.95;123395;1105;65017;-79
2021/03/09 07:04:45;;;;;;;8.80;4.37;;;;;;;0.60;83.72;101158.08;123713;1105;64953;-82
2021/03/09 07:07:14;;;;;;;6.13;3.00;;;;;;;0.62;84.13;101158.81;123497;1105;64835;-81
2021/03/09 07:09:52;;;;;;;6.70;3.47;;;;;;;0.60;85.17;101158.08;123478;1105;65328;-81
2021/03/09 07:12:19;;;;;;;9.35;3.95;;;;;;;0.58;84.71;101155.55;123617;1105;64896;-83
2021/03/09 07:14:46;;;;;;;11.10;4.90;;;;;;;0.59;84.08;101157.21;123557;1105;64898;-81
2021/03/09 07:17:14;;;;;;;11.77;4.80;;;;;;;0.61;85.07;101162.34;123503;1105;66738;-81
2021/03/09 07:19:44;;;;;;;8.67;4.20;;;;;;;0.61;85.76;101154.51;123694;1105;65224;-81
2021/03/09 07:22:14;;;;;;;8.53;3.80;;;;;;;0.59;84.56;101164.22;123514;1105;65017;-79
2021/03/09 07:24:56;;;;;;;10.37;3.93;;;;;;;0.57;84.79;101158.25;123502;1105;65035;-80
2021/03/09 07:27:27;;;;;;;13.07;4.97;;;;;;;0.55;85.22;101163.59;123706;1105;64921;-82
2021/03/09 07:29:58;;;;;;;9.13;4.00;;;;;;;0.53;85.24;101152.41;123837;1105;64975;-79
2021/03/09 07:32:28;;;;;;;9.97;3.50;;;;;;;0.57;85.41;101158.25;123659;1105;65368;-81
2021/03/09 07:34:57;;;;;;;8.80;4.25;;;;;;;0.57;85.83;101151.28;123707;1105;64915;-80
2021/03/09 07:37:25;;;;;;;8.50;4.37;;;;;;;0.59;86.25;101161.61;123577;1105;65004;-81
2021/03/09 07:39:51;;;;;;;10.57;4.63;;;;;;;0.61;86.07;101159.73;123539;1105;65061;-82
2021/03/09 07:42:19;;;;;;;13.10;5.30;;;;;;;0.67;85.40;101164.56;123607;1105;64909;-82
2021/03/09 07:44:48;;;;;;;13.40;4.93;;;;;;;0.71;85.28;101159.98;123759;1105;65083;-82
2021/03/09 07:47:19;;;;;;;12.10;5.20;;;;;;;0.73;85.51;101158.95;123598;1105;64904;-81
2021/03/09 07:49:45;;;;;;;8.73;4.17;;;;;;;0.75;85.81;101158.85;123631;1105;64904;-80
2021/03/09 07:52:15;;;;;;;12.40;5.43;;;;;;;0.77;85.65;101165.64;123342;1105;65016;-82
2021/03/09 07:55:03;;;;;;;13.60;5.13;;;;;;;0.81;84.88;101150.62;123396;1105;64899;-82
2021/03/09 07:57:37;;;;;;;11.63;4.17;;;;;;;0.87;85.59;101160.67;123467;1105;64975;-84
2021/03/09 08:00:08;;;;;;;10.88;4.58;;;;;;;0.86;85.02;101153.75;123542;1105;64957;-81
2021/03/09 08:02:57;;;;;;;8.87;4.57;;;;;;;0.86;85.79;101150.31;123397;1105;64902;-80
2021/03/09 08:05:26;;;;;;;18.90;6.87;;;;;;;0.90;85.17;101154.41;123493;1105;64872;-81
2021/03/09 08:07:53;;;;;;;13.30;6.20;;;;;;;0.91;85.33;101150.83;123570;1105;64963;-82
2021/03/09 08:10:45;;;;;;;11.93;5.80;;;;;;;0.90;85.81;101144.78;123516;1105;64901;-82
2021/03/09 08:13:15;;;;;;;8.25;4.40;;;;;;;0.86;85.17;101150.31;123358;1105;65569;-81
2021/03/09 08:15:42;;;;;;;5.83;2.80;;;;;;;0.83;85.52;101147.89;123410;1105;64921;-81
2021/03/09 08:18:19;;;;;;;12.97;5.77;;;;;;;0.83;85.33;101147.89;123421;1105;65042;-81
2021/03/09 08:20:57;;;;;;;14.47;6.00;;;;;;;0.84;85.36;101141.74;123464;1105;64953;-80
2021/03/09 08:23:36;;;;;;;13.03;5.00;;;;;;;0.80;85.86;101139.31;123498;1105;64979;-81
2021/03/09 08:26:29;;;;;;;13.90;5.60;;;;;;;0.77;85.79;101136.92;123440;1105;64847;-81
2021/03/09 08:28:55;;;;;;;13.67;5.50;;;;;;;0.81;85.56;101135.78;123450;1105;65221;-81
2021/03/09 08:31:26;;;;;;;13.60;6.47;;;;;;;0.85;85.68;101131.20;123466;1105;65038;-82
2021/03/09 08:34:08;;;;;;;13.90;6.30;;;;;;;0.87;86.01;101131.94;123472;1105;64898;-81
2021/03/09 08:36:36;;;;;;;6.50;4.03;;;;;;;0.86;85.94;101129.42;123502;1105;65047;-80
2021/03/09 08:39:08;;;;;;;9.73;4.53;;;;;;;0.84;86.29;101134.73;123692;1105;64902;-81
2021/03/09 08:41:38;;;;;;;12.87;6.10;;;;;;;0.83;85.54;101137.44;123403;1106;65497;-81
2021/03/09 08:44:14;;;;;;;9.43;5.03;;;;;;;0.80;86.40;101134.09;123514;1105;64982;-82
2021/03/09 08:47:02;;;;;;;9.53;4.00;;;;;;;0.79;86.77;101129.82;123441;1105;64928;-80
2021/03/09 08:52:08;;;;;;;10.03;3.97;;;;;;;0.75;86.62;101124.91;123488;1105;64901;-80
2021/03/09 08:54:36;;;;;;;14.10;6.05;;;;;;;0.77;87.37;101123.86;123476;1105;64975;-80
2021/03/09 08:57:13;;;;;;;13.67;5.80;;;;;;;0.84;86.67;101123.45;123377;1105;65216;-81
2021/03/09 08:59:41;;;;;;;10.13;4.67;;;;;;;0.89;86.76;101126.59;123476;1105;65314;-81
2021/03/09 09:02:18;;;;;;;9.90;4.50;;;;;;;0.93;86.28;101123.67;123496;1105;64895;-80
2021/03/09 09:05:02;;;;;;;8.47;3.77;;;;;;;0.95;86.61;101113.12;123482;1104;64879;-82
2021/03/09 09:07:39;;;;;;;14.00;5.87;;;;;;;0.99;86.11;101122.44;123507;1105;65708;-82
2021/03/09 09:10:16;;;;;;;15.67;5.53;;;;;;;1.00;86.28;101111.06;123667;1105;65078;-80
2021/03/09 09:12:44;;;;;;;11.10;5.83;;;;;;;1.02;86.57;101117.02;123527;1105;65705;-81
2021/03/09 09:15:17;;;;;;;11.17;5.20;;;;;;;1.00;86.52;101116.28;123650;1105;65039;-81
2021/03/09 09:17:53;;;;;;;12.00;6.65;;;;;;;0.96;86.62;101115.64;123564;1105;65798;-82
2021/03/09 09:20:22;;;;;;;15.70;6.73;;;;;;;0.96;85.92;101118.26;123457;1106;64903;-81
2021/03/09 09:22:51;;;;;;;18.33;8.20;;;;;;;0.93;86.88;101118.45;123471;1105;65433;-82
2021/03/09 09:25:17;;;;;;;15.93;7.10;;;;;;;0.94;86.87;101121.91;123483;1105;64918;-81
2021/03/09 09:27:54;;;;;;;13.97;7.00;;;;;;;0.90;86.74;101110.00;123518;1105;64920;-81
2021/03/09 09:30:34;;;;;;;23.00;9.03;;;;;;;0.85;87.40;101110.31;123670;1105;64991;-82
2021/03/09 09:33:03;;;;;;;13.43;5.47;;;;;;;0.85;87.30;101109.45;123534;1105;65061;-81
2021/03/09 09:35:30;;;;;;;16.13;6.87;;;;;;;0.85;87.17;101107.70;123505;1105;65067;-81
2021/03/09 09:38:14;;;;;;;18.50;9.07;;;;;;;0.87;87.75;101112.80;123484;1105;64901;-82
2021/03/09 09:40:45;;;;;;;12.57;6.07;;;;;;;0.88;87.35;101104.04;123475;1105;64894;-83
2021/03/09 09:43:16;;;;;;;9.37;3.90;;;;;;;0.89;87.64;101110.92;123468;1105;64835;-83
2021/03/09 09:45:45;;;;;;;7.87;4.23;;;;;;;0.89;87.76;101106.52;123463;1105;66204;-84
2021/03/09 09:48:20;;;;;;;12.63;5.83;;;;;;;0.92;87.24;101108.13;123612;1106;65396;-82
2021/03/09 09:51:00;;;;;;;13.40;6.23;;;;;;;0.93;87.55;101107.17;123481;1105;64902;-82
2021/03/09 09:53:35;;;;;;;11.23;4.57;;;;;;;0.98;87.58;101102.49;123440;1105;65010;-82
2021/03/09 09:56:05;;;;;;;17.25;8.50;;;;;;;0.99;87.74;101101.53;123509;1105;64844;-83
2021/03/09 09:58:47;;;;;;;13.77;6.63;;;;;;;1.02;87.54;101098.73;123608;1105;64935;-84
2021/03/09 10:01:36;;;;;;;14.20;6.47;;;;;;;1.08;87.54;101100.08;123514;1105;65017;-83
2021/03/09 10:04:04;;;;;;;15.37;6.80;;;;;;;1.10;87.34;101096.41;123448;1105;65077;-84
2021/03/09 10:06:48;;;;;;;19.37;5.27;;;;;;;1.07;87.97;101093.20;123475;1105;65027;-84
2021/03/09 10:09:20;;;;;;;11.87;5.47;;;;;;;1.07;87.73;101098.42;123501;1106;64921;-84
2021/03/09 10:11:51;;;;;;;7.20;3.83;;;;;;;1.07;87.67;101099.25;123574;1105;65026;-82
2021/03/09 10:14:18;;;;;;;11.83;4.27;;;;;;;1.08;87.80;101097.47;123469;1105;65328;-82
2021/03/09 10:16:45;;;;;;;13.17;5.47;;;;;;;1.13;86.52;101092.78;123411;1105;64904;-83
2021/03/09 10:19:15;;;;;;;6.87;3.87;;;;;;;1.15;87.39;101096.95;123510;1105;64889;-83
2021/03/09 10:21:42;;;;;;;14.40;7.20;;;;;;;1.19;86.99;101093.20;123563;1105;65026;-83
2021/03/09 10:24:09;;;;;;;18.60;8.33;;;;;;;1.28;86.84;101098.74;123462;1105;65249;-84
2021/03/09 10:26:43;;;;;;;13.00;6.07;;;;;;;1.34;87.01;101101.77;123422;1105;64905;-83
2021/03/09 10:29:18;;;;;;;10.33;3.60;;;;;;;1.42;86.85;101093.38;123510;1105;64913;-84
2021/03/09 10:31:47;;;;;;;10.10;5.60;;;;;;;1.50;86.50;101101.53;123496;1105;66113;-84
2021/03/09 10:34:19;;;;;;;13.37;6.10;;;;;;;1.53;86.52;101096.11;123520;1105;64902;-81
2021/03/09 10:36:54;;;;;;;13.47;6.93;;;;;;;1.58;86.31;101094.00;123536;1104;65739;-83
2021/03/09 10:39:22;;;;;;;12.70;5.00;;;;;;;1.63;86.19;101094.50;123465;1105;65026;-82
2021/03/09 10:41:49;;;;;;;13.93;6.33;;;;;;;1.62;85.92;101089.40;123536;1105;64979;-82
2021/03/09 10:44:30;;;;;;;10.77;5.57;;;;;;;1.62;86.09;101092.02;123499;1105;64979;-83
2021/03/09 10:46:57;;;;;;;10.93;5.90;;;;;;;1.60;86.34;101091.28;123517;1105;64799;-81
2021/03/09 10:49:23;;;;;;;14.33;6.67;;;;;;;1.55;86.26;101088.99;123450;1105;64921;-80
2021/03/09 10:51:57;;;;;;;18.63;9.20;;;;;;;1.54;86.13;101083.86;123458;1105;65689;-81
2021/03/09 10:54:24;;;;;;;12.77;5.20;;;;;;;1.53;86.17;101083.03;123391;1105;65003;-81
2021/03/09 10:56:50;;;;;;;12.10;5.50;;;;;;;1.48;86.83;101082.50;123473;1105;64888;-81
2021/03/09 10:59:16;;;;;;;11.20;4.33;;;;;;;1.48;86.78;101085.11;123620;1106;64886;-81
2021/03/09 11:01:42;;;;;;;17.90;7.73;;;;;;;1.50;87.03;101080.62;123538;1106;64898;-82
2021/03/09 11:04:08;;;;;;;14.18;6.55;;;;;;;1.52;86.88;101078.73;123491;1105;65525;-80
2021/03/09 11:06:34;;;;;;;9.75;6.25;;;;;;;1.55;86.55;101083.77;123475;1105;64901;-81
2021/03/09 11:09:01;;;;;;;13.25;6.30;;;;;;;1.53;86.87;101080.42;123479;1105;65647;-80
2021/03/09 11:11:27;;;;;;;12.07;6.67;;;;;;;1.55;86.79;101075.06;123504;1105;64921;-81
2021/03/09 11:13:53;;;;;;;19.53;7.87;;;;;;;1.57;86.96;101081.88;123421;1105;64905;-81
2021/03/09 11:16:20;;;;;;;18.73;8.37;;;;;;;1.68;86.73;101080.27;124629;1105;64863;-81
2021/03/09 11:18:46;;;;;;;11.73;4.97;;;;;;;1.78;87.04;101076.06;125461;1105;65090;-83
2021/03/09 11:21:12;;;;;;;13.40;5.90;;;;;;;1.83;86.49;101081.83;125570;1105;64921;-82
2021/03/09 11:23:39;;;;;;;13.93;6.50;;;;;;;1.94;86.69;101081.89;123789;1106;65552;-80
2021/03/09 11:26:09;;;;;;;17.25;8.25;;;;;;;2.02;85.95;101069.09;123621;1105;64959;-81
2021/03/09 11:28:35;;;;;;;10.73;5.37;;;;;;;2.08;86.29;101073.03;123550;1105;64888;-82
2021/03/09 11:31:02;;;;;;;16.95;7.55;;;;;;;2.09;86.18;101077.34;123629;1105;64981;-80
2021/03/09 11:33:28;;;;;;;10.33;4.73;;;;;;;2.08;85.93;101078.27;123597;1105;64860;-80
2021/03/09 11:35:55;;;;;;;14.23;6.50;;;;;;;2.09;86.15;101076.51;123607;1105;64981;-80
2021/03/09 11:38:21;;;;;;;13.35;3.05;;;;;;;2.11;86.33;101069.38;123508;1105;64982;-80
2021/03/09 11:40:47;;;;;;;21.17;9.37;;;;;;;2.15;86.23;101070.83;123576;1105;64898;-80